Aviation Digital Data Service (ADDS)

Output produced by METARs form (1416 UTC 19 April 2019)
found at http://www.aviationweather.gov/metar/data/
 
Forecast for: ZSAM (XIAMEN , CN)
Text: TAF ZSAM 190907Z 1912/2012 24003MPS 5000 BR SCT007 OVC020 TX23/2006Z TN18/1921Z
Forecast period: 1200 UTC 19 April 2019 to 1200 UTC 20 April 2019
Forecast type: FROM: standard forecast or significant change
Winds: from the WSW (240 degrees) at 7 MPH (6 knots; 3.1 m/s)
Visibility: 3 miles (5 km)
Ceiling: 2000 feet AGL
Clouds: scattered clouds at 700 feet AGL
overcast cloud deck at 2000 feet AGL
Weather: BR  (mist)
Text: TEMPO 1918/1924 1200 BKN006 OVC020 OVC025
Forecast period: 1800 UTC 19 April 2019 to 0000 UTC 20 April 2019
Forecast type: TEMPORARY: The following changes expected for less than half the time period
Visibility: 0.75 miles (1.21 km)
Ceiling: 600 feet AGL
Clouds: broken clouds at 600 feet AGL
overcast cloud deck at 2000 feet AGL
overcast cloud deck at 2500 feet AGL
Weather: no significant weather forecast for this period
Text: TEMPO 2005/2011 2500 SHRA BR BKN006 FEW020CB OVC023
Forecast period: 0500 to 1100 UTC 20 April 2019
Forecast type: TEMPORARY: The following changes expected for less than half the time period
Visibility: 1.55 miles (2.49 km)
Ceiling: 600 feet AGL
Clouds: broken clouds at 600 feet AGL
few clouds at 2000 feet AGL
overcast cloud deck at 2300 feet AGL
Weather: SHRA BR  (rain showers, mist)